Time;durP1;ratioP1;P1;durP2;ratioP2;P2;SDS_P1;SDS_P2;PMS_P1;PMS_P2;Temp;Humidity;BMP_temperature;BMP_pressure;BME280_temperature;BME280_humidity;BME280_pressure;Samples;Min_cycle;Max_cycle;Signal;HPM_P1;HPM_P2
2023/11/07 00:00:14;;;;;;;0.50;0.50;;;;;;;19.84;56.66;97769.94;107204;1280;59788;-42
2023/11/07 00:02:41;;;;;;;0.70;0.70;;;;;;;19.85;56.67;97775.70;103688;1283;62200;-42
2023/11/07 00:05:11;;;;;;;0.80;0.60;;;;;;;19.85;56.62;97784.18;103475;1283;75157;-42
2023/11/07 00:07:38;;;;;;;0.80;0.50;;;;;;;19.86;56.61;97781.16;103373;1283;66210;-42
2023/11/07 00:10:05;;;;;;;0.60;0.50;;;;;;;19.86;56.62;97781.70;103395;1283;72512;-42
2023/11/07 00:12:32;;;;;;;0.80;0.50;;;;;;;19.86;56.66;97786.44;103491;1279;62063;-41
2023/11/07 00:14:59;;;;;;;1.20;0.40;;;;;;;19.86;56.66;97790.01;103614;1286;62212;-41
2023/11/07 00:17:25;;;;;;;1.10;0.60;;;;;;;19.85;56.55;97798.39;103629;1281;75223;-41
2023/11/07 00:19:52;;;;;;;0.70;0.50;;;;;;;19.85;56.51;97791.48;103839;1280;66056;-41
2023/11/07 00:22:18;;;;;;;0.50;0.50;;;;;;;19.85;56.60;97795.84;103850;1282;62225;-41
2023/11/07 00:24:46;;;;;;;0.70;0.50;;;;;;;19.85;56.54;97795.59;103582;1283;62235;-41
2023/11/07 00:27:14;;;;;;;0.70;0.50;;;;;;;19.85;56.55;97797.98;103475;1280;62121;-41
2023/11/07 00:29:40;;;;;;;0.40;0.40;;;;;;;19.84;56.54;97798.91;103433;1280;75570;-41
2023/11/07 00:32:07;;;;;;;0.60;0.50;;;;;;;19.84;56.55;97798.05;103537;1283;65626;-42
2023/11/07 00:34:33;;;;;;;0.60;0.60;;;;;;;19.83;56.50;97799.45;103418;1281;71469;-42
2023/11/07 00:37:00;;;;;;;0.80;0.60;;;;;;;19.84;56.48;97802.45;103500;1279;62041;-42
2023/11/07 00:39:27;;;;;;;0.60;0.60;;;;;;;19.83;56.60;97800.77;103666;1283;62120;-43
2023/11/07 00:41:53;;;;;;;0.50;0.50;;;;;;;19.83;56.56;97803.79;103561;1282;75829;-40
2023/11/07 00:44:21;;;;;;;0.40;0.40;;;;;;;19.83;56.56;97805.95;103713;1283;65700;-41
2023/11/07 00:46:48;;;;;;;0.50;0.50;;;;;;;19.83;56.60;97808.65;103325;1279;72641;-43
2023/11/07 00:49:15;;;;;;;0.40;0.40;;;;;;;19.83;56.48;97813.70;103416;1282;62121;-42
2023/11/07 00:51:41;;;;;;;1.20;0.60;;;;;;;19.83;56.57;97813.77;103565;1280;62203;-43
2023/11/07 00:54:10;;;;;;;0.70;0.40;;;;;;;19.82;56.64;97814.68;103610;1284;75798;-43
2023/11/07 00:56:37;;;;;;;0.60;0.60;;;;;;;19.81;56.45;97816.46;103593;1282;65712;-41
2023/11/07 00:59:03;;;;;;;1.10;0.50;;;;;;;19.81;56.55;97822.66;103808;1283;72658;-41
2023/11/07 01:01:31;;;;;;;0.50;0.50;;;;;;;19.81;56.54;97828.34;103459;1283;62056;-41
2023/11/07 01:03:58;;;;;;;0.60;0.60;;;;;;;19.81;56.55;97828.02;103486;1283;62108;-41
2023/11/07 01:06:25;;;;;;;0.40;0.40;;;;;;;19.81;56.62;97830.27;103703;1283;75132;-41
2023/11/07 01:08:52;;;;;;;0.60;0.50;;;;;;;19.80;56.56;97828.39;103821;1283;66022;-41
2023/11/07 01:11:18;;;;;;;0.40;0.40;;;;;;;19.81;56.52;97828.79;103731;1280;72629;-40
2023/11/07 01:13:46;;;;;;;1.20;0.50;;;;;;;19.80;56.57;97833.99;103515;1283;62085;-42
2023/11/07 01:16:12;;;;;;;2.20;0.60;;;;;;;19.80;56.53;97831.96;103873;1280;62117;-41
2023/11/07 01:18:39;;;;;;;0.70;0.40;;;;;;;19.80;56.57;97825.84;105314;1280;75404;-42
2023/11/07 01:21:06;;;;;;;0.70;0.60;;;;;;;19.81;56.59;97833.77;107306;1278;66355;-43
2023/11/07 01:23:32;;;;;;;0.30;0.30;;;;;;;19.81;56.50;97831.52;104132;1282;70545;-42
2023/11/07 01:26:02;;;;;;;0.70;0.60;;;;;;;19.82;56.56;97831.69;103502;1284;62082;-42
2023/11/07 01:28:29;;;;;;;1.00;0.60;;;;;;;19.82;56.58;97833.10;103883;1282;62111;-42
2023/11/07 01:30:56;;;;;;;0.40;0.40;;;;;;;19.83;56.44;97833.52;103684;1283;75372;-42
2023/11/07 01:33:22;;;;;;;0.60;0.50;;;;;;;19.83;56.48;97838.17;103786;1283;66321;-42
2023/11/07 01:35:49;;;;;;;0.60;0.50;;;;;;;19.83;56.51;97839.98;103721;1283;72459;-42
2023/11/07 01:38:16;;;;;;;0.50;0.50;;;;;;;19.84;56.63;97839.58;103537;1282;62140;-42
2023/11/07 01:40:42;;;;;;;0.50;0.50;;;;;;;19.84;56.44;97840.67;103543;1279;62107;-42
2023/11/07 01:43:12;;;;;;;0.40;0.40;;;;;;;19.83;56.55;97841.67;103520;1283;62221;-42
2023/11/07 01:45:40;;;;;;;0.70;0.50;;;;;;;19.84;56.55;97839.27;103666;1282;66210;-41
2023/11/07 01:48:08;;;;;;;1.20;0.50;;;;;;;19.83;56.45;97839.65;103834;1280;72668;-42
2023/11/07 01:50:36;;;;;;;0.50;0.50;;;;;;;19.83;56.48;97841.67;104076;1282;62116;-42
2023/11/07 01:53:04;;;;;;;0.50;0.50;;;;;;;19.83;56.46;97839.66;103565;1283;62123;-41
2023/11/07 01:55:32;;;;;;;0.50;0.50;;;;;;;19.83;56.55;97851.91;103820;1279;75277;-42
2023/11/07 01:58:00;;;;;;;0.40;0.40;;;;;;;19.83;56.45;97853.16;103480;1280;65969;-41
2023/11/07 02:00:28;;;;;;;1.00;0.50;;;;;;;19.83;56.51;97854.25;103962;1285;73064;-41
2023/11/07 02:02:55;;;;;;;0.80;0.70;;;;;;;19.83;56.52;97856.65;103826;1282;62203;-41
2023/11/07 02:05:22;;;;;;;1.90;0.40;;;;;;;19.83;56.42;97854.31;103742;1282;62028;-41
2023/11/07 02:07:48;;;;;;;0.70;0.50;;;;;;;19.82;56.40;97856.01;103396;1282;62094;-41
2023/11/07 02:10:15;;;;;;;0.50;0.50;;;;;;;19.82;56.48;97854.54;103600;1283;62146;-41
2023/11/07 02:12:42;;;;;;;0.60;0.60;;;;;;;19.82;56.47;97851.10;103409;1280;73044;-41
2023/11/07 02:15:22;;;;;;;0.50;0.40;;;;;;;19.82;56.46;97852.59;103417;1279;62105;-43
2023/11/07 02:17:49;;;;;;;0.70;0.50;;;;;;;19.81;56.41;97860.95;103476;1280;62050;-41
2023/11/07 02:20:17;;;;;;;0.50;0.50;;;;;;;19.82;56.52;97863.91;103661;1283;75245;-41
2023/11/07 02:23:26;;;;;;;0.70;0.70;;;;;;;19.82;56.47;97866.63;103760;1283;66361;-41
2023/11/07 02:25:52;;;;;;;0.70;0.40;;;;;;;19.81;56.48;97866.00;103188;1280;72610;-41
2023/11/07 02:28:19;;;;;;;0.50;0.50;;;;;;;19.81;56.48;97867.79;103417;1282;62209;-41
2023/11/07 02:30:47;;;;;;;0.90;0.60;;;;;;;19.81;56.49;97868.86;103484;1280;62177;-41
2023/11/07 02:33:14;;;;;;;0.70;0.60;;;;;;;19.80;56.45;97866.98;103497;1279;75829;-41
2023/11/07 02:35:41;;;;;;;0.60;0.50;;;;;;;19.81;56.49;97865.67;103600;1280;66254;-41
2023/11/07 02:38:08;;;;;;;0.70;0.50;;;;;;;19.81;56.39;97863.44;103621;1280;72703;-41
2023/11/07 02:40:35;;;;;;;0.60;0.50;;;;;;;19.80;56.50;97863.04;104094;1282;62076;-40
2023/11/07 02:43:04;;;;;;;0.90;0.60;;;;;;;19.81;56.54;97867.61;103691;1280;62110;-41
2023/11/07 02:45:31;;;;;;;0.60;0.60;;;;;;;19.81;56.41;97863.35;104006;1279;73825;-41
2023/11/07 02:47:58;;;;;;;0.50;0.50;;;;;;;19.81;56.43;97864.35;103626;1282;66263;-41
2023/11/07 02:50:24;;;;;;;0.70;0.60;;;;;;;19.81;56.44;97864.05;103946;1279;72942;-41
2023/11/07 02:52:51;;;;;;;0.70;0.60;;;;;;;19.81;56.38;97868.15;103460;1285;62098;-42
2023/11/07 02:55:18;;;;;;;0.80;0.60;;;;;;;19.81;56.40;97870.65;103598;1280;62123;-41
2023/11/07 02:57:44;;;;;;;0.60;0.50;;;;;;;19.82;56.45;97877.19;103397;1282;75226;-41
2023/11/07 03:00:13;;;;;;;0.60;0.40;;;;;;;19.82;56.33;97879.20;103461;1282;65905;-41
2023/11/07 03:02:39;;;;;;;1.70;0.50;;;;;;;19.81;56.45;97887.58;103488;1282;72349;-41
2023/11/07 03:05:07;;;;;;;0.40;0.40;;;;;;;19.82;56.32;97885.17;103458;1282;62070;-41
2023/11/07 03:07:34;;;;;;;0.50;0.50;;;;;;;19.82;56.37;97888.98;103475;1287;62206;-41
2023/11/07 03:10:02;;;;;;;0.70;0.50;;;;;;;19.81;56.36;97887.65;103750;1282;75391;-41
2023/11/07 03:12:29;;;;;;;0.70;0.50;;;;;;;19.81;56.36;97889.76;103520;1280;65892;-41
2023/11/07 03:14:56;;;;;;;0.90;0.40;;;;;;;19.81;56.39;97889.28;103542;1279;72626;-40
2023/11/07 03:17:23;;;;;;;0.70;0.40;;;;;;;19.81;56.47;97888.67;103625;1282;62121;-41
2023/11/07 03:19:53;;;;;;;0.50;0.50;;;;;;;19.81;56.37;97890.46;103506;1280;62116;-41
2023/11/07 03:22:20;;;;;;;0.80;0.50;;;;;;;19.81;56.32;97892.86;103655;1281;74727;-41
2023/11/07 03:24:48;;;;;;;0.50;0.50;;;;;;;19.81;56.22;97888.90;103581;1282;66060;-41
2023/11/07 03:27:15;;;;;;;0.40;0.40;;;;;;;19.81;56.39;97886.89;103822;1280;72587;-41
2023/11/07 03:29:42;;;;;;;0.60;0.50;;;;;;;19.81;56.38;97890.38;103815;1283;62152;-41
2023/11/07 03:32:09;;;;;;;1.10;0.60;;;;;;;19.81;56.30;97888.51;103717;1280;62128;-41
2023/11/07 03:34:36;;;;;;;0.50;0.50;;;;;;;19.81;56.27;97888.51;103806;1282;75588;-42
2023/11/07 03:37:03;;;;;;;0.60;0.50;;;;;;;19.81;56.37;97888.27;103848;1282;65439;-41
2023/11/07 03:39:31;;;;;;;0.60;0.60;;;;;;;19.81;56.23;97886.80;103735;1280;72519;-41
2023/11/07 03:41:57;;;;;;;0.40;0.40;;;;;;;19.81;56.42;97888.83;103455;1282;62702;-41
2023/11/07 03:44:24;;;;;;;0.60;0.60;;;;;;;19.81;56.35;97890.69;103500;1281;62187;-41
2023/11/07 03:46:50;;;;;;;0.70;0.50;;;;;;;19.81;56.41;97885.33;103452;1280;75520;-41
2023/11/07 03:49:17;;;;;;;0.80;0.60;;;;;;;19.81;56.27;97887.59;103697;1282;62179;-41
2023/11/07 03:51:45;;;;;;;0.50;0.50;;;;;;;19.82;56.33;97888.69;103732;1280;72536;-41
2023/11/07 03:54:12;;;;;;;0.60;0.60;;;;;;;19.81;56.34;97885.41;103760;1283;62107;-42
2023/11/07 03:56:38;;;;;;;0.50;0.50;;;;;;;19.82;56.35;97883.55;105344;1282;62069;-44
2023/11/07 03:59:05;;;;;;;0.40;0.40;;;;;;;19.81;56.32;97881.23;103843;1280;75436;-42
2023/11/07 04:01:37;;;;;;;0.40;0.40;;;;;;;19.82;56.32;97882.94;105843;1279;62094;-42
2023/11/07 04:04:05;;;;;;;1.10;0.50;;;;;;;19.82;56.31;97885.97;105185;1279;71856;-41
2023/11/07 04:06:31;;;;;;;0.50;0.50;;;;;;;19.83;56.33;97884.30;103700;1282;62108;-41
2023/11/07 04:08:58;;;;;;;0.60;0.40;;;;;;;19.83;56.24;97885.85;103841;1281;62203;-41
2023/11/07 04:11:25;;;;;;;0.90;0.60;;;;;;;19.83;56.27;97888.02;103863;1282;75439;-41
2023/11/07 04:13:52;;;;;;;0.40;0.40;;;;;;;19.84;56.39;97890.29;103610;1282;62219;-41
2023/11/07 04:16:18;;;;;;;0.70;0.50;;;;;;;19.84;56.30;97893.64;103578;1283;62581;-41
2023/11/07 04:18:45;;;;;;;0.50;0.50;;;;;;;19.85;56.27;97893.34;103623;1280;62001;-41
2023/11/07 04:21:12;;;;;;;0.50;0.40;;;;;;;19.84;56.22;97891.98;103794;1279;62151;-42
2023/11/07 04:23:40;;;;;;;0.80;0.60;;;;;;;19.85;56.14;97893.27;103604;1282;75228;-42
2023/11/07 04:26:07;;;;;;;0.60;0.50;;;;;;;19.85;56.24;97895.29;103568;1282;66106;-42
2023/11/07 04:28:37;;;;;;;0.60;0.50;;;;;;;19.85;56.18;97890.94;103473;1280;72661;-42
2023/11/07 04:31:04;;;;;;;0.40;0.40;;;;;;;19.84;56.10;97893.40;103557;1282;62099;-42
2023/11/07 04:33:33;;;;;;;0.50;0.50;;;;;;;19.85;56.21;97893.34;103590;1281;62101;-42
2023/11/07 04:36:00;;;;;;;0.60;0.60;;;;;;;19.85;56.20;97893.72;103832;1280;75427;-42
2023/11/07 04:38:30;;;;;;;0.50;0.40;;;;;;;19.84;56.24;97893.95;103568;1280;65621;-42
2023/11/07 04:40:57;;;;;;;0.80;0.50;;;;;;;19.84;56.24;97898.91;103489;1280;72627;-42
2023/11/07 04:43:25;;;;;;;0.70;0.50;;;;;;;19.84;56.18;97907.54;103707;1282;62792;-40
2023/11/07 04:45:51;;;;;;;0.90;0.60;;;;;;;19.85;56.21;97911.43;103525;1280;62206;-41
2023/11/07 04:48:19;;;;;;;1.20;0.60;;;;;;;19.84;56.13;97906.90;103451;1280;62727;-41
2023/11/07 04:50:46;;;;;;;0.90;0.60;;;;;;;19.84;56.19;97910.17;103516;1282;66257;-41
2023/11/07 04:53:12;;;;;;;0.60;0.60;;;;;;;19.84;56.07;97909.39;103475;1280;72815;-41
2023/11/07 04:55:39;;;;;;;0.40;0.30;;;;;;;19.83;56.09;97908.69;103712;1283;62155;-41
2023/11/07 04:58:06;;;;;;;0.50;0.50;;;;;;;19.83;56.29;97910.77;103473;1280;62245;-41
2023/11/07 05:00:32;;;;;;;0.40;0.40;;;;;;;19.83;56.17;97910.08;103780;1279;75286;-42
2023/11/07 05:02:59;;;;;;;0.60;0.50;;;;;;;19.83;56.35;97909.60;103444;1282;65086;-41
2023/11/07 05:05:26;;;;;;;0.60;0.50;;;;;;;19.83;56.17;97907.96;104214;1280;72656;-42
2023/11/07 05:07:53;;;;;;;0.60;0.60;;;;;;;19.83;56.14;97910.45;103674;1282;62089;-43
2023/11/07 05:10:20;;;;;;;0.30;0.30;;;;;;;19.83;56.18;97911.70;104027;1279;62087;-43
2023/11/07 05:12:47;;;;;;;0.40;0.40;;;;;;;19.83;56.19;97912.27;103492;1280;75353;-41
2023/11/07 05:15:14;;;;;;;0.40;0.40;;;;;;;19.84;56.15;97914.84;103408;1282;65125;-41
2023/11/07 05:17:40;;;;;;;0.50;0.50;;;;;;;19.84;56.21;97916.99;103436;1280;72732;-41
2023/11/07 05:20:10;;;;;;;0.40;0.40;;;;;;;19.85;56.25;97917.64;103587;1282;62136;-41
2023/11/07 05:22:39;;;;;;;0.40;0.40;;;;;;;19.85;56.22;97920.13;103613;1282;62006;-41
2023/11/07 05:25:07;;;;;;;0.50;0.50;;;;;;;19.85;56.23;97918.59;103517;1280;75265;-41
2023/11/07 05:27:34;;;;;;;0.90;0.60;;;;;;;19.85;56.14;97920.77;103505;1279;64885;-40
2023/11/07 05:30:00;;;;;;;1.30;0.60;;;;;;;19.86;56.20;97919.45;103536;1280;72840;-42
2023/11/07 05:32:27;;;;;;;0.50;0.40;;;;;;;19.87;56.27;97922.73;103651;1283;62095;-42
2023/11/07 05:34:55;;;;;;;0.60;0.60;;;;;;;19.87;56.21;97926.93;103600;1280;62142;-41
2023/11/07 05:37:21;;;;;;;0.70;0.60;;;;;;;19.87;56.25;97929.20;103856;1281;75441;-42
2023/11/07 05:39:48;;;;;;;0.80;0.60;;;;;;;19.88;56.19;97928.35;103715;1282;66111;-41
2023/11/07 05:42:15;;;;;;;0.50;0.50;;;;;;;19.87;56.16;97922.37;103753;1280;71499;-41
2023/11/07 05:44:42;;;;;;;2.00;0.60;;;;;;;19.89;56.26;97928.83;103525;1282;62023;-42
2023/11/07 05:47:09;;;;;;;0.50;0.50;;;;;;;19.89;56.29;97936.23;103500;1280;62110;-42
2023/11/07 05:49:36;;;;;;;0.60;0.60;;;;;;;19.89;56.22;97944.75;103664;1281;75414;-42
2023/11/07 05:52:05;;;;;;;0.50;0.50;;;;;;;19.90;56.32;97948.54;103437;1280;67435;-41
2023/11/07 05:54:31;;;;;;;0.50;0.50;;;;;;;19.90;56.25;97951.27;103423;1285;73712;-43
2023/11/07 05:56:59;;;;;;;0.50;0.50;;;;;;;19.91;56.22;97949.87;103649;1282;62105;-41
2023/11/07 05:59:26;;;;;;;0.40;0.40;;;;;;;19.91;56.20;97958.80;103694;1280;62210;-41
2023/11/07 06:01:54;;;;;;;0.50;0.50;;;;;;;19.91;56.10;97964.23;103808;1282;75257;-41
2023/11/07 06:04:36;;;;;;;0.40;0.40;;;;;;;19.92;56.21;97965.03;103526;1282;66129;-42
2023/11/07 06:07:03;;;;;;;0.60;0.50;;;;;;;19.92;56.06;97967.74;103787;1280;72699;-41
2023/11/07 06:09:30;;;;;;;0.50;0.50;;;;;;;19.92;56.08;97970.16;103510;1278;62120;-41
2023/11/07 06:11:57;;;;;;;0.60;0.50;;;;;;;19.93;56.16;97974.68;103765;1280;62143;-40
2023/11/07 06:14:24;;;;;;;1.30;0.60;;;;;;;19.94;56.21;97976.02;103542;1282;75344;-40
2023/11/07 06:16:53;;;;;;;4.50;0.80;;;;;;;19.94;56.18;97982.33;103357;1280;66248;-49
2023/11/07 06:19:22;;;;;;;2.80;0.70;;;;;;;19.94;56.15;97985.98;103343;1282;73577;-42
2023/11/07 06:21:49;;;;;;;1.40;0.60;;;;;;;19.95;56.09;97989.10;103561;1280;62166;-43
2023/11/07 06:24:16;;;;;;;4.80;0.80;;;;;;;19.96;56.06;97988.73;103579;1279;62142;-43
2023/11/07 06:26:46;;;;;;;3.50;0.70;;;;;;;19.95;56.10;97989.73;103282;1280;76286;-44
2023/11/07 06:29:13;;;;;;;1.80;0.90;;;;;;;19.96;56.07;97994.59;103681;1282;67206;-43
2023/11/07 06:31:45;;;;;;;3.30;0.80;;;;;;;19.96;56.01;97995.65;103496;1280;73440;-44
2023/11/07 06:34:14;;;;;;;1.20;0.70;;;;;;;19.96;56.09;97992.77;103558;1280;62499;-41
2023/11/07 06:36:41;;;;;;;1.90;0.70;;;;;;;19.96;56.02;97996.41;103610;1280;62123;-41
2023/11/07 06:39:10;;;;;;;3.50;1.00;;;;;;;19.95;56.06;97995.88;103667;1280;75517;-42
2023/11/07 06:41:38;;;;;;;5.30;1.10;;;;;;;19.96;56.07;97994.96;103657;1280;65804;-40
2023/11/07 06:44:04;;;;;;;4.00;1.10;;;;;;;19.98;55.95;97989.64;103739;1279;72347;-40
2023/11/07 06:46:32;;;;;;;5.20;1.10;;;;;;;19.99;56.14;97991.69;104981;1280;62089;-40
2023/11/07 06:48:58;;;;;;;4.10;1.00;;;;;;;20.01;56.25;97992.59;105941;1280;60005;-39
2023/11/07 06:51:28;;;;;;;1.70;0.80;;;;;;;20.04;56.46;97992.36;103925;1279;75390;-40
2023/11/07 06:53:55;;;;;;;1.90;0.90;;;;;;;20.06;56.44;97995.98;103459;1282;67282;-39
2023/11/07 06:56:22;;;;;;;1.30;0.90;;;;;;;20.08;56.58;97999.20;103603;1280;72669;-40
2023/11/07 06:58:49;;;;;;;2.20;0.80;;;;;;;20.10;56.62;98000.34;103531;1280;62089;-40
2023/11/07 07:01:16;;;;;;;1.40;0.90;;;;;;;20.11;56.54;98002.64;103807;1280;62098;-41
2023/11/07 07:03:43;;;;;;;1.30;0.70;;;;;;;20.13;56.49;98009.98;103576;1280;76630;-42
2023/11/07 07:06:12;;;;;;;1.70;0.80;;;;;;;20.13;56.54;98008.66;103610;1280;67205;-40
2023/11/07 07:08:40;;;;;;;3.70;1.00;;;;;;;20.14;56.56;98008.54;103561;1279;72596;-40
2023/11/07 07:11:09;;;;;;;1.20;0.70;;;;;;;20.16;56.58;98011.06;106704;1279;61664;-41
2023/11/07 07:13:39;;;;;;;1.30;0.90;;;;;;;20.17;56.61;98014.14;103335;1280;62184;-40
2023/11/07 07:16:07;;;;;;;1.40;0.80;;;;;;;20.19;56.58;98009.50;104099;1280;75481;-40
2023/11/07 07:18:39;;;;;;;2.20;0.90;;;;;;;20.20;56.61;98011.77;103441;1280;66287;-40
2023/11/07 07:21:06;;;;;;;0.90;0.70;;;;;;;20.21;56.74;98012.15;103628;1280;73019;-41
2023/11/07 07:23:36;;;;;;;1.70;0.80;;;;;;;20.21;56.59;98009.41;103601;1283;62063;-40
2023/11/07 07:26:08;;;;;;;1.30;1.00;;;;;;;20.22;56.69;98012.34;103616;1280;62133;-40
2023/11/07 07:28:38;;;;;;;2.70;0.80;;;;;;;20.22;56.57;98008.59;103788;1282;76417;-40
2023/11/07 07:31:06;;;;;;;2.20;0.90;;;;;;;20.22;56.59;98009.92;103768;1280;66151;-41
2023/11/07 07:33:35;;;;;;;1.20;0.70;;;;;;;20.23;56.59;98016.00;103629;1280;73402;-42
2023/11/07 07:36:04;;;;;;;2.10;0.80;;;;;;;20.23;56.37;98018.55;103842;1277;62170;-41
2023/11/07 07:38:32;;;;;;;1.30;0.80;;;;;;;20.23;56.49;98024.77;103633;1277;62276;-40
2023/11/07 07:40:58;;;;;;;2.00;1.00;;;;;;;20.23;56.52;98023.15;105416;1279;75264;-39
2023/11/07 07:43:26;;;;;;;0.60;0.60;;;;;;;20.24;56.39;98025.34;103613;1282;65081;-39
2023/11/07 07:45:55;;;;;;;1.80;0.60;;;;;;;20.24;56.40;98023.80;103701;1280;72673;-41
2023/11/07 07:48:22;;;;;;;1.20;0.70;;;;;;;20.26;56.51;98024.93;103730;1280;62085;-40
2023/11/07 07:50:51;;;;;;;1.20;0.70;;;;;;;20.27;56.66;98028.68;103625;1280;62088;-40
2023/11/07 07:53:20;;;;;;;1.80;0.90;;;;;;;20.27;56.78;98023.33;103605;1282;76469;-39
2023/11/07 07:55:50;;;;;;;2.00;0.70;;;;;;;20.29;56.78;98026.27;103636;1282;66061;-39
2023/11/07 07:58:21;;;;;;;1.30;0.60;;;;;;;20.30;56.68;98024.27;103664;1282;72505;-39
2023/11/07 08:00:52;;;;;;;3.30;0.80;;;;;;;20.32;57.00;98025.54;103448;1280;62181;-39
2023/11/07 08:03:18;;;;;;;1.70;0.70;;;;;;;20.33;57.07;98027.05;103609;1279;62082;-40
2023/11/07 08:05:45;;;;;;;3.20;0.80;;;;;;;20.34;57.36;98021.26;103771;1284;75300;-40
2023/11/07 08:08:16;;;;;;;1.30;0.60;;;;;;;20.36;57.43;98015.16;103687;1280;66085;-40
2023/11/07 08:10:47;;;;;;;1.10;0.80;;;;;;;20.38;57.52;98022.59;103519;1280;73394;-41
2023/11/07 08:13:16;;;;;;;3.40;0.70;;;;;;;20.40;57.36;98025.66;103469;1284;62105;-41
2023/11/07 08:15:43;;;;;;;2.00;0.90;;;;;;;20.41;57.59;98025.30;103663;1282;62117;-40
2023/11/07 08:18:10;;;;;;;1.00;0.70;;;;;;;20.43;57.52;98023.02;103552;1285;76460;-40
2023/11/07 08:20:38;;;;;;;1.30;0.90;;;;;;;20.45;57.69;98022.51;103439;1280;67381;-39
2023/11/07 08:23:05;;;;;;;2.30;0.90;;;;;;;20.47;57.63;98020.38;104665;1280;74954;-41
2023/11/07 08:25:32;;;;;;;3.20;0.80;;;;;;;20.49;57.54;98027.23;104211;1282;62139;-40
2023/11/07 08:27:59;;;;;;;4.20;0.90;;;;;;;20.51;57.47;98037.02;103551;1280;62093;-40
2023/11/07 08:30:26;;;;;;;5.80;0.90;;;;;;;20.52;57.58;98040.85;103478;1280;76216;-40
2023/11/07 08:32:53;;;;;;;1.40;0.70;;;;;;;20.53;57.40;98043.21;103621;1282;66982;-40
2023/11/07 08:35:20;;;;;;;2.40;0.90;;;;;;;20.54;57.36;98038.58;104296;1277;73648;-42
2023/11/07 08:37:49;;;;;;;2.10;0.90;;;;;;;20.56;57.60;98034.64;103550;1282;62088;-40
2023/11/07 08:40:18;;;;;;;3.50;1.40;;;;;;;20.57;57.44;98034.13;103626;1280;62088;-41
2023/11/07 08:42:45;;;;;;;1.40;1.20;;;;;;;20.58;57.68;98033.54;103633;1283;75442;-43
2023/11/07 08:45:21;;;;;;;1.80;1.00;;;;;;;20.60;57.94;98040.88;103537;1280;67328;-39
2023/11/07 08:47:52;;;;;;;1.60;1.00;;;;;;;20.62;58.11;98037.43;103593;1280;73075;-38
2023/11/07 08:50:20;;;;;;;4.90;1.30;;;;;;;20.63;57.99;98041.34;103629;1282;62647;-37
2023/11/07 08:52:47;;;;;;;2.40;0.90;;;;;;;20.64;58.15;98041.28;103518;1278;270205;-39
2023/11/07 08:55:14;;;;;;;2.10;1.10;;;;;;;20.65;58.20;98041.86;103575;1280;76598;-40
2023/11/07 08:57:40;;;;;;;7.70;1.10;;;;;;;20.66;58.17;98040.17;103626;1280;66848;-40
2023/11/07 09:00:09;;;;;;;2.00;0.90;;;;;;;20.68;58.24;98043.55;104363;1280;73281;-39
2023/11/07 09:02:36;;;;;;;3.30;1.40;;;;;;;20.69;58.34;98039.39;103501;1280;62147;-38
2023/11/07 09:05:04;;;;;;;1.20;0.90;;;;;;;20.70;58.25;98042.50;103535;1280;62101;-39
2023/11/07 09:07:31;;;;;;;2.70;1.20;;;;;;;20.70;58.32;98040.35;103615;1280;76094;-37
2023/11/07 09:09:58;;;;;;;1.40;1.00;;;;;;;20.71;58.21;98040.60;104881;1280;67088;-39
2023/11/07 09:12:24;;;;;;;2.90;1.00;;;;;;;20.72;58.18;98041.71;104741;1279;71929;-39
2023/11/07 09:14:51;;;;;;;5.50;1.00;;;;;;;20.74;58.29;98044.46;103479;1285;62053;-42
2023/11/07 09:17:24;;;;;;;2.90;0.90;;;;;;;20.75;58.71;98044.81;103580;1279;62171;-43
2023/11/07 09:19:52;;;;;;;3.20;1.00;;;;;;;20.77;59.79;98043.77;103332;1283;76291;-41
2023/11/07 09:22:18;;;;;;;2.50;0.90;;;;;;;20.80;60.40;98047.86;103659;1279;62034;-39
2023/11/07 09:24:47;;;;;;;4.30;1.50;;;;;;;20.83;60.69;98043.67;103597;1279;71467;-40
2023/11/07 09:27:14;;;;;;;1.80;1.10;;;;;;;20.85;61.02;98045.66;103849;1280;62021;-43
2023/11/07 09:29:40;;;;;;;3.30;1.20;;;;;;;20.88;61.46;98047.65;104811;1280;62207;-44
2023/11/07 09:32:07;;;;;;;1.90;0.90;;;;;;;20.90;61.42;98050.97;105289;1280;76461;-46
2023/11/07 09:34:39;;;;;;;5.00;1.10;;;;;;;20.92;61.40;98041.14;105761;1279;67493;-44
2023/11/07 09:37:07;;;;;;;4.00;1.10;;;;;;;20.95;61.28;98044.86;104716;1279;73507;-44
2023/11/07 09:39:34;;;;;;;5.10;1.30;;;;;;;20.98;61.21;98037.92;103739;1280;62179;-42
2023/11/07 09:42:02;;;;;;;2.60;1.20;;;;;;;21.00;61.11;98031.81;103648;1283;62092;-42
2023/11/07 09:44:29;;;;;;;2.70;1.10;;;;;;;21.03;60.93;98025.73;103580;1282;76518;-47
2023/11/07 09:46:57;;;;;;;1.50;0.90;;;;;;;21.05;60.97;98027.05;103617;1280;66023;-45
2023/11/07 09:49:24;;;;;;;2.00;1.30;;;;;;;21.07;60.89;98020.41;103347;1279;72183;-44
2023/11/07 09:51:53;;;;;;;3.60;1.20;;;;;;;21.08;60.83;98020.44;103584;1282;62097;-43
2023/11/07 09:54:25;;;;;;;3.50;1.30;;;;;;;21.10;60.78;98024.30;103290;1285;62352;-45
2023/11/07 09:56:52;;;;;;;3.40;1.20;;;;;;;21.13;60.55;98024.33;103320;1282;76304;-41
2023/11/07 09:59:40;;;;;;;3.50;1.10;;;;;;;21.15;60.55;98021.89;105761;1279;67091;-41
2023/11/07 10:02:07;;;;;;;1.90;1.20;;;;;;;21.16;60.27;98012.43;103704;1280;72834;-43
2023/11/07 10:04:34;;;;;;;2.90;0.90;;;;;;;21.18;60.30;98011.23;103402;1282;62187;-43
2023/11/07 10:07:02;;;;;;;1.90;1.00;;;;;;;21.20;60.34;98004.27;103650;1280;62082;-39
2023/11/07 10:09:32;;;;;;;3.30;1.00;;;;;;;21.21;60.21;98001.01;103511;1279;76661;-43
2023/11/07 10:12:00;;;;;;;2.70;1.00;;;;;;;21.22;60.16;97998.79;103603;1281;66982;-48
2023/11/07 10:14:27;;;;;;;3.30;1.00;;;;;;;21.24;60.09;97992.59;103552;1280;73834;-42
2023/11/07 10:16:57;;;;;;;5.20;1.20;;;;;;;21.25;60.11;97993.77;103698;1282;62225;-42
2023/11/07 10:19:24;;;;;;;1.70;1.10;;;;;;;21.26;59.93;97985.31;103501;1280;62280;-41
2023/11/07 10:21:54;;;;;;;4.90;1.40;;;;;;;21.27;59.88;97985.09;104290;1279;76673;-41
2023/11/07 10:24:21;;;;;;;2.10;1.00;;;;;;;21.28;59.94;97980.91;103739;1280;66190;-41
2023/11/07 10:26:51;;;;;;;3.70;1.20;;;;;;;21.29;59.92;97985.84;103679;1280;72948;-43
2023/11/07 10:29:25;;;;;;;3.50;1.10;;;;;;;21.30;59.89;97981.56;103569;1282;62104;-43
2023/11/07 10:32:00;;;;;;;3.40;1.20;;;;;;;21.31;59.79;97983.39;103517;1279;62120;-48
2023/11/07 10:34:27;;;;;;;1.50;1.10;;;;;;;21.33;59.84;97986.38;103593;1282;75236;-41
2023/11/07 10:36:54;;;;;;;1.90;1.00;;;;;;;21.33;59.79;97980.14;103506;1280;67371;-49
2023/11/07 10:39:25;;;;;;;1.10;0.70;;;;;;;21.34;59.73;97973.01;103503;1280;73402;-45
2023/11/07 10:41:55;;;;;;;1.80;1.10;;;;;;;21.35;59.65;97972.33;103616;1280;62117;-41
2023/11/07 10:44:28;;;;;;;4.90;1.30;;;;;;;21.36;59.72;97970.94;103469;1280;62136;-39
2023/11/07 10:46:57;;;;;;;11.70;1.00;;;;;;;21.37;59.85;97971.90;103575;1280;74932;-48
2023/11/07 10:49:24;;;;;;;5.70;1.10;;;;;;;21.38;59.88;97982.35;103435;1277;67183;-44
2023/11/07 10:51:52;;;;;;;5.80;1.10;;;;;;;21.39;59.70;97980.95;104461;1280;72354;-44
2023/11/07 10:54:21;;;;;;;2.30;1.10;;;;;;;21.39;59.67;97977.63;103542;1280;62089;-44
2023/11/07 10:56:49;;;;;;;4.90;1.10;;;;;;;21.38;59.63;97977.23;103870;1277;62190;-44
2023/11/07 10:59:21;;;;;;;3.20;0.90;;;;;;;21.38;59.41;97974.80;103618;1282;75610;-43
2023/11/07 11:01:50;;;;;;;4.00;1.10;;;;;;;21.37;59.51;97972.98;103643;1277;67039;-41
2023/11/07 11:04:23;;;;;;;3.90;1.30;;;;;;;21.37;59.31;97970.48;103779;1282;73861;-42
2023/11/07 11:06:54;;;;;;;2.30;1.20;;;;;;;21.36;59.41;97969.92;103470;1284;62100;-41
2023/11/07 11:09:22;;;;;;;3.40;1.60;;;;;;;21.36;59.44;97974.75;103511;1280;62058;-44
2023/11/07 11:11:50;;;;;;;2.80;1.40;;;;;;;21.35;59.49;97971.70;103580;1282;76406;-45
2023/11/07 11:14:18;;;;;;;5.30;1.30;;;;;;;21.34;59.37;97968.73;103519;1280;67175;-46
2023/11/07 11:16:46;;;;;;;6.40;1.60;;;;;;;21.34;59.60;97967.33;103872;1282;73914;-48
2023/11/07 11:19:23;;;;;;;3.20;1.50;;;;;;;21.35;59.82;97968.27;103779;1280;62079;-43
2023/11/07 11:22:04;;;;;;;2.90;1.50;;;;;;;21.36;59.83;97969.23;103582;1282;62187;-43
2023/11/07 11:24:53;;;;;;;7.70;1.60;;;;;;;21.37;59.87;97964.20;103512;1280;75451;-46
2023/11/07 11:27:23;;;;;;;5.90;1.50;;;;;;;21.39;59.70;97964.77;103458;1282;66921;-46